createdAt,value
2022-08-05T00:02:39.913Z,81
2022-08-05T00:12:55.714Z,83
2022-08-05T00:22:47.082Z,84
2022-08-05T00:32:46.645Z,85
2022-08-05T00:42:49.209Z,86
2022-08-05T00:52:51.058Z,88
2022-08-05T01:02:53.213Z,90
2022-08-05T01:13:03.268Z,93
2022-08-05T01:22:57.161Z,96
2022-08-05T01:32:59.387Z,98
2022-08-05T01:43:01.387Z,100
2022-08-05T01:53:03.362Z,100
2022-08-05T03:55:07.268Z,100
2022-08-05T04:33:55.205Z,100
2022-08-05T05:03:44.578Z,100
2022-08-05T05:24:02.559Z,100
2022-08-05T05:43:54.749Z,100
2022-08-05T05:53:58.475Z,100
2022-08-05T06:04:01.487Z,100
2022-08-05T06:14:00.247Z,100
2022-08-05T06:44:06.026Z,100
2022-08-05T06:54:08.087Z,100
2022-08-05T07:04:10.369Z,100
2022-08-05T07:14:15.305Z,100
2022-08-05T07:24:14.954Z,100
2022-08-05T07:34:21.292Z,100
2022-08-05T07:44:19.716Z,100
2022-08-05T07:54:21.967Z,100
2022-08-05T08:14:26.309Z,100
2022-08-05T08:24:34.784Z,100
2022-08-05T08:34:33.214Z,100
2022-08-05T08:45:21.848Z,100
2022-08-05T08:54:33.796Z,100
2022-08-05T09:04:36.383Z,100
2022-08-05T09:14:55.299Z,100
2022-08-05T09:24:40.016Z,100
2022-08-05T09:34:42.188Z,100
2022-08-05T09:44:43.891Z,100
2022-08-05T09:54:46.039Z,100
2022-08-05T10:04:48.035Z,100
2022-08-05T10:14:50.478Z,100
2022-08-05T10:24:52.593Z,100
2022-08-05T10:34:54.334Z,100
2022-08-05T10:44:56.880Z,100
2022-08-05T10:54:59.201Z,100
2022-08-05T11:05:01.802Z,100
2022-08-05T11:15:12.092Z,100
2022-08-05T11:25:16.726Z,100
2022-08-05T11:35:08.037Z,100
2022-08-05T11:55:12.559Z,100
2022-08-05T12:05:17.897Z,100
2022-08-05T12:15:16.794Z,100
2022-08-05T12:25:18.339Z,100
2022-08-05T12:35:21.551Z,100
2022-08-05T12:45:22.242Z,93
2022-08-05T12:55:25.248Z,89
2022-08-05T13:05:26.577Z,87
2022-08-05T13:15:35.776Z,86
2022-08-05T13:25:51.530Z,82
2022-08-05T13:35:43.422Z,77
2022-08-05T13:55:40.639Z,74
2022-08-05T14:05:48.717Z,74
2022-08-05T14:16:06.537Z,72
2022-08-05T14:25:45.131Z,69
2022-08-05T14:35:50.207Z,67
2022-08-05T14:45:46.855Z,65
2022-08-05T14:55:52.354Z,63
2022-08-05T15:06:08.605Z,60
2022-08-05T15:15:53.930Z,57
2022-08-05T15:25:59.711Z,55
2022-08-05T15:35:59.243Z,53
2022-08-05T15:46:01.425Z,51
2022-08-05T15:56:05.691Z,50
2022-08-05T16:06:05.900Z,49
2022-08-05T16:16:10.705Z,48
2022-08-05T16:26:10.746Z,47
2022-08-05T16:46:24.070Z,45
2022-08-05T17:16:30.014Z,44
2022-08-05T17:26:24.365Z,44
2022-08-05T17:36:32.655Z,44
2022-08-05T18:06:32.529Z,44
2022-08-05T18:16:35.014Z,44
2022-08-05T18:26:37.162Z,45
2022-08-05T18:36:39.016Z,45
2022-08-05T18:46:43.143Z,45
2022-08-05T18:56:50.927Z,46
2022-08-05T19:06:45.653Z,46
2022-08-05T19:16:47.454Z,47
2022-08-05T19:36:51.420Z,48
2022-08-05T19:46:53.205Z,49
2022-08-05T19:56:55.590Z,49
2022-08-05T19:57:18.635Z,49
2022-08-05T20:07:10.215Z,50
2022-08-05T20:17:07.071Z,51
2022-08-05T20:27:11.041Z,52
2022-08-05T20:37:18.047Z,53
2022-08-05T20:47:14.206Z,54
2022-08-05T20:57:24.490Z,55
2022-08-05T21:07:18.523Z,56
2022-08-05T21:17:20.603Z,57
2022-08-05T21:27:24.551Z,58
2022-08-05T21:37:25.309Z,60
2022-08-05T21:57:31.077Z,63
2022-08-05T22:07:39.697Z,65
2022-08-05T22:28:10.082Z,70
2022-08-05T22:37:58.332Z,73
2022-08-05T22:47:39.543Z,76
2022-08-05T22:57:42.254Z,79
2022-08-05T23:07:45.559Z,82
2022-08-05T23:18:00.040Z,85
2022-08-05T23:27:57.571Z,88
2022-08-05T23:37:50.264Z,91
2022-08-05T23:47:52.068Z,93
2022-08-05T23:57:54.161Z,96
